createdAt,value
2019-04-04T00:01:39.674Z,86.60
2019-04-04T00:04:10.053Z,86.40
2019-04-04T00:06:40.550Z,86.20
2019-04-04T00:09:11.231Z,86.30
2019-04-04T00:11:41.632Z,86.50
2019-04-04T00:14:14.778Z,85.40
2019-04-04T00:16:51.735Z,85.40
2019-04-04T00:19:29.932Z,85.30
2019-04-04T00:22:01.056Z,84.40
2019-04-04T00:24:31.476Z,84.40
2019-04-04T00:27:01.856Z,84.50
2019-04-04T00:29:32.307Z,84.80
2019-04-04T00:32:02.684Z,85.00
2019-04-04T00:34:33.109Z,84.80
2019-04-04T00:37:04.775Z,85.00
2019-04-04T00:39:35.744Z,83.50
2019-04-04T00:42:06.157Z,82.80
2019-04-04T00:44:36.579Z,81.80
2019-04-04T00:47:06.953Z,81.90
2019-04-04T00:49:37.336Z,83.20
2019-04-04T00:52:09.932Z,82.20
2019-04-04T00:54:39.895Z,82.20
2019-04-04T00:57:10.367Z,81.20
2019-04-04T00:59:40.740Z,81.20
2019-04-04T01:02:11.224Z,81.40
2019-04-04T01:04:41.649Z,81.20
2019-04-04T01:07:12.256Z,81.20
2019-04-04T01:09:45.875Z,81.10
2019-04-04T01:12:17.706Z,81.30
2019-04-04T01:14:48.090Z,81.00
2019-04-04T01:17:18.512Z,81.70
2019-04-04T01:19:49.775Z,82.30
2019-04-04T01:22:20.356Z,84.00
2019-04-04T01:24:50.727Z,86.00
2019-04-04T01:27:21.150Z,87.20
2019-04-04T01:29:51.529Z,88.10
2019-04-04T01:32:21.951Z,87.70
2019-04-04T01:34:52.763Z,87.50
2019-04-04T01:37:25.173Z,86.40
2019-04-04T01:39:55.563Z,86.50
2019-04-04T01:42:26.066Z,86.90
2019-04-04T01:44:56.499Z,85.90
2019-04-04T01:47:26.996Z,85.60
2019-04-04T01:49:57.426Z,85.50
2019-04-04T01:52:28.606Z,85.20
2019-04-04T01:55:03.018Z,84.70
2019-04-04T01:57:31.629Z,84.50
2019-04-04T02:00:02.042Z,85.10
2019-04-04T02:02:32.499Z,85.60
2019-04-04T02:05:02.991Z,85.80
2019-04-04T02:07:33.388Z,85.80
2019-04-04T02:10:05.477Z,85.40
2019-04-04T02:12:38.582Z,86.00
2019-04-04T02:15:13.807Z,84.70
2019-04-04T02:17:42.740Z,85.90
2019-04-04T02:20:13.219Z,86.40
2019-04-04T02:22:43.611Z,86.20
2019-04-04T02:25:14.234Z,87.10
2019-04-04T02:27:44.662Z,88.20
2019-04-04T02:30:16.354Z,85.30
2019-04-04T02:32:47.192Z,84.20
2019-04-04T02:35:17.632Z,82.60
2019-04-04T02:37:48.012Z,87.40
2019-04-04T02:40:18.594Z,89.20
2019-04-04T02:42:49.005Z,90.00
2019-04-04T02:45:19.515Z,91.10
2019-04-04T02:47:51.264Z,89.80
2019-04-04T02:50:21.992Z,90.30
2019-04-04T02:52:52.363Z,91.50
2019-04-04T02:55:22.781Z,90.30
2019-04-04T02:57:53.154Z,90.30
2019-04-04T03:00:26.283Z,90.10
2019-04-04T03:02:55.692Z,90.90
2019-04-04T03:05:26.224Z,88.70
2019-04-04T03:07:56.587Z,86.60
2019-04-04T03:10:27.217Z,84.70
2019-04-04T03:12:58.648Z,86.70
2019-04-04T03:15:29.724Z,86.20
2019-04-04T03:18:04.175Z,86.10
2019-04-04T03:20:32.324Z,83.50
2019-04-04T03:23:02.702Z,83.60
2019-04-04T03:25:33.301Z,84.90
2019-04-04T03:28:03.830Z,84.10
2019-04-04T03:30:34.335Z,81.70
2019-04-04T03:33:05.890Z,78.80
2019-04-04T03:35:36.217Z,77.10
2019-04-04T03:38:06.675Z,75.70
2019-04-04T03:40:37.092Z,76.00
2019-04-04T03:43:07.562Z,73.20
2019-04-04T03:46:00.167Z,70.10
2019-04-04T03:48:31.894Z,68.00
2019-04-04T03:51:04.639Z,66.50
2019-04-04T03:53:34.462Z,64.00
2019-04-04T03:56:04.896Z,58.50
2019-04-04T03:58:36.026Z,57.20
2019-04-04T04:01:06.443Z,56.50
2019-04-04T04:03:36.908Z,53.10
2019-04-04T04:06:08.988Z,51.90
2019-04-04T04:08:39.298Z,50.90
2019-04-04T04:11:09.809Z,47.20
2019-04-04T04:13:40.216Z,47.10
2019-04-04T04:16:11.052Z,46.30
2019-04-04T04:18:41.555Z,46.60
2019-04-04T04:21:12.079Z,47.40
2019-04-04T04:23:42.798Z,47.20
2019-04-04T04:28:14.594Z,46.70
2019-04-04T04:29:22.294Z,47.10
2019-04-04T04:32:06.559Z,46.40
2019-04-04T04:34:38.760Z,47.40
2019-04-04T04:37:11.159Z,46.50
2019-04-04T04:39:41.546Z,45.60
2019-04-04T04:42:21.503Z,42.20
2019-04-04T04:44:52.434Z,43.30
2019-04-04T04:47:27.108Z,45.30
2019-04-04T04:50:00.776Z,45.10
2019-04-04T04:52:47.974Z,44.00
2019-04-04T04:55:28.889Z,44.10
2019-04-04T04:58:00.151Z,43.10
2019-04-04T05:00:30.636Z,42.80
2019-04-04T05:03:01.440Z,43.70
2019-04-04T05:05:33.578Z,44.00
2019-04-04T05:08:06.073Z,45.80
2019-04-04T05:10:39.336Z,46.00
2019-04-04T05:13:14.505Z,45.80
2019-04-04T05:15:46.453Z,45.20
2019-04-04T05:18:18.377Z,45.40
2019-04-04T05:20:48.807Z,43.20
2019-04-04T05:23:28.190Z,41.80
2019-04-04T05:26:02.336Z,42.80
2019-04-04T05:28:35.827Z,43.30
2019-04-04T05:31:07.345Z,42.40
2019-04-04T05:33:46.640Z,42.40
2019-04-04T05:36:21.319Z,41.60
2019-04-04T05:38:56.262Z,42.10
2019-04-04T05:41:27.368Z,41.20
2019-04-04T05:43:58.559Z,40.50
2019-04-04T05:46:32.783Z,39.60
2019-04-04T05:49:07.841Z,40.70
2019-04-04T05:51:37.365Z,38.80
2019-04-04T05:54:08.395Z,38.70
2019-04-04T05:56:39.369Z,37.10
2019-04-04T05:59:09.879Z,36.60
2019-04-04T06:01:49.348Z,36.00
2019-04-04T06:04:20.263Z,34.80
2019-04-04T06:06:50.819Z,36.80
2019-04-04T06:09:21.199Z,37.60
2019-04-04T06:11:55.733Z,35.00
2019-04-04T06:14:30.682Z,33.60
2019-04-04T06:17:01.182Z,33.20
2019-04-04T06:19:36.013Z,34.70
2019-04-04T06:22:06.496Z,36.20
2019-04-04T06:24:37.111Z,39.80
2019-04-04T06:27:09.131Z,42.20
2019-04-04T06:29:39.823Z,45.00
2019-04-04T06:32:10.209Z,48.50
2019-04-04T06:34:44.953Z,51.60
2019-04-04T06:37:18.058Z,54.00
2019-04-04T06:39:54.184Z,55.80
2019-04-04T06:42:24.603Z,58.30
2019-04-04T06:44:58.625Z,57.90
2019-04-04T06:47:32.369Z,56.60
2019-04-04T06:50:02.350Z,54.10
2019-04-04T06:52:32.701Z,52.80
2019-04-04T06:55:03.117Z,51.50
2019-04-04T06:57:34.209Z,49.80
2019-04-04T07:00:09.851Z,48.20
2019-04-04T07:02:40.332Z,48.00
2019-04-04T07:05:11.044Z,47.00
2019-04-04T07:07:43.849Z,45.80
2019-04-04T07:10:13.956Z,44.80
2019-04-04T07:12:44.964Z,46.20
2019-04-04T07:15:15.900Z,46.90
2019-04-04T07:17:46.943Z,47.70
2019-04-04T07:20:17.576Z,48.90
2019-04-04T07:22:49.500Z,48.30
2019-04-04T07:25:20.142Z,47.90
2019-04-04T07:27:50.507Z,47.60
2019-04-04T07:30:22.699Z,46.80
2019-04-04T07:32:53.080Z,46.10
2019-04-04T07:35:23.587Z,48.30
2019-04-04T07:37:57.250Z,47.40
2019-04-04T07:40:26.095Z,44.30
2019-04-04T07:42:56.491Z,43.50
2019-04-04T07:45:27.039Z,42.40
2019-04-04T07:47:57.530Z,41.80
2019-04-04T07:50:28.758Z,42.50
2019-04-04T07:53:04.053Z,41.90
2019-04-04T07:55:34.171Z,42.00
2019-04-04T07:58:15.537Z,41.00
2019-04-04T08:00:47.524Z,41.20
2019-04-04T08:03:20.419Z,41.20
2019-04-04T08:05:50.846Z,40.00
2019-04-04T08:08:21.266Z,40.30
2019-04-04T08:10:52.175Z,40.50
2019-04-04T08:13:27.963Z,40.80
2019-04-04T08:15:58.322Z,40.50
2019-04-04T08:18:28.852Z,41.60
2019-04-04T08:21:00.149Z,40.80
2019-04-04T08:23:33.164Z,41.70
2019-04-04T08:26:03.594Z,41.90
2019-04-04T08:28:33.963Z,41.20
2019-04-04T08:31:04.388Z,39.70
2019-04-04T08:33:35.972Z,39.60
2019-04-04T08:36:06.744Z,39.00
2019-04-04T08:38:37.290Z,39.20
2019-04-04T08:41:07.728Z,38.90
2019-04-04T08:43:38.130Z,39.40
2019-04-04T08:46:08.565Z,39.00
2019-04-04T08:48:38.984Z,38.90
2019-04-04T08:51:09.453Z,38.80
2019-04-04T08:53:40.593Z,37.60
2019-04-04T08:56:11.420Z,37.50
2019-04-04T08:58:41.813Z,37.80
2019-04-04T09:01:12.380Z,37.50
2019-04-04T09:03:44.491Z,38.10
2019-04-04T09:06:14.908Z,37.30
2019-04-04T09:08:45.380Z,37.00
2019-04-04T09:11:15.770Z,37.00
2019-04-04T09:13:46.141Z,37.00
2019-04-04T09:16:16.598Z,38.00
2019-04-04T09:18:47.000Z,37.50
2019-04-04T09:21:17.407Z,38.00
2019-04-04T09:23:47.806Z,38.10
2019-04-04T09:26:18.223Z,38.50
2019-04-04T09:28:48.641Z,38.40
2019-04-04T09:31:19.163Z,37.50
2019-04-04T09:33:49.556Z,37.30
2019-04-04T09:36:19.986Z,37.00
2019-04-04T09:38:50.368Z,36.70
2019-04-04T09:41:20.836Z,36.20
2019-04-04T09:43:51.364Z,35.80
2019-04-04T09:46:21.881Z,36.60
2019-04-04T09:48:52.302Z,36.60
2019-04-04T09:51:22.702Z,37.70
2019-04-04T09:53:53.623Z,37.20
2019-04-04T09:56:24.478Z,37.00
2019-04-04T09:58:55.221Z,37.00
2019-04-04T10:01:25.926Z,36.60
2019-04-04T10:03:56.373Z,36.40
2019-04-04T10:06:26.758Z,36.30
2019-04-04T10:08:57.226Z,36.30
2019-04-04T10:11:27.604Z,36.00
2019-04-04T10:13:58.061Z,35.90
2019-04-04T10:16:28.574Z,37.00
2019-04-04T10:18:58.974Z,36.70
2019-04-04T10:21:29.391Z,36.90
2019-04-04T10:23:59.780Z,37.20
2019-04-04T10:26:30.181Z,37.80
2019-04-04T10:29:00.603Z,37.40
2019-04-04T10:31:31.471Z,37.10
2019-04-04T10:34:03.033Z,37.70
2019-04-04T10:36:37.912Z,37.30
2019-04-04T10:39:12.891Z,37.20
2019-04-04T10:41:45.429Z,36.20
2019-04-04T10:44:15.520Z,36.00
2019-04-04T10:46:45.987Z,36.60
2019-04-04T10:49:16.343Z,36.20
2019-04-04T10:51:47.940Z,36.20
2019-04-04T10:54:18.313Z,36.10
2019-04-04T10:56:48.781Z,36.20
2019-04-04T10:59:19.235Z,36.50
2019-04-04T11:01:49.668Z,35.90
2019-04-04T11:04:21.779Z,35.70
2019-04-04T11:06:52.169Z,36.70
2019-04-04T11:09:25.417Z,36.50
2019-04-04T11:11:55.860Z,37.00
2019-04-04T11:14:26.354Z,36.40
2019-04-04T11:16:56.831Z,36.40
2019-04-04T11:19:31.465Z,36.60
2019-04-04T11:21:59.348Z,36.50
2019-04-04T11:24:34.508Z,36.30
2019-04-04T11:27:07.878Z,36.30
2019-04-04T11:29:38.257Z,36.40
2019-04-04T11:32:08.837Z,36.20
2019-04-04T11:34:39.254Z,38.20
2019-04-04T11:37:13.744Z,38.20
2019-04-04T11:39:54.050Z,37.80
2019-04-04T11:42:16.273Z,37.00
2019-04-04T11:44:46.843Z,36.40
2019-04-04T11:47:17.334Z,36.10
2019-04-04T11:49:47.978Z,35.10
2019-04-04T11:52:18.509Z,36.70
2019-04-04T11:55:01.095Z,35.80
2019-04-04T11:57:31.909Z,36.30
2019-04-04T12:00:03.842Z,35.90
2019-04-04T12:02:37.487Z,35.30
2019-04-04T12:05:09.092Z,35.70
2019-04-04T12:07:39.521Z,35.30
2019-04-04T12:10:10.303Z,34.80
2019-04-04T12:12:40.786Z,34.90
2019-04-04T12:15:11.467Z,35.00
2019-04-04T12:17:41.979Z,34.40
2019-04-04T12:20:13.051Z,34.20
2019-04-04T12:22:45.000Z,33.40
2019-04-04T12:25:15.596Z,33.10
2019-04-04T12:27:49.076Z,33.60
2019-04-04T12:30:20.886Z,33.90
2019-04-04T12:32:51.568Z,34.20
2019-04-04T12:35:21.970Z,36.00
2019-04-04T12:37:52.430Z,33.70
2019-04-04T12:40:27.152Z,34.00
2019-04-04T12:43:03.263Z,33.80
2019-04-04T12:45:33.672Z,33.90
2019-04-04T12:48:04.174Z,33.70
2019-04-04T12:50:34.604Z,34.20
2019-04-04T12:53:10.276Z,33.80
2019-04-04T12:55:40.703Z,34.20
2019-04-04T12:58:11.106Z,34.10
2019-04-04T13:00:43.063Z,33.90
2019-04-04T13:03:15.090Z,34.00
2019-04-04T13:05:45.501Z,34.20
2019-04-04T13:08:15.913Z,34.40
2019-04-04T13:10:51.888Z,34.50
2019-04-04T13:13:22.369Z,35.10
2019-04-04T13:15:52.817Z,34.50
2019-04-04T13:18:23.278Z,34.40
2019-04-04T13:20:53.709Z,34.80
2019-04-04T13:23:24.093Z,34.50
2019-04-04T13:25:54.562Z,34.30
2019-04-04T13:28:26.564Z,34.40
2019-04-04T13:30:56.988Z,34.90
2019-04-04T13:33:28.787Z,35.20
2019-04-04T13:35:59.267Z,35.70
2019-04-04T13:38:29.754Z,34.80
2019-04-04T13:41:00.182Z,33.80
2019-04-04T13:43:30.630Z,33.70
2019-04-04T13:46:01.050Z,33.60
2019-04-04T13:48:31.594Z,34.20
2019-04-04T13:51:03.731Z,34.10
2019-04-04T13:53:34.157Z,34.60
2019-04-04T13:56:06.073Z,34.50
2019-04-04T13:58:39.564Z,34.80
2019-04-04T14:01:09.905Z,35.10
2019-04-04T14:03:40.355Z,34.50
2019-04-04T14:06:11.623Z,34.30
2019-04-04T14:08:42.533Z,34.70
2019-04-04T14:11:13.037Z,35.20
2019-04-04T14:13:48.695Z,35.30
2019-04-04T14:16:18.171Z,35.40
2019-04-04T14:18:48.695Z,36.10
2019-04-04T14:21:25.170Z,36.00
2019-04-04T14:23:57.036Z,36.10
2019-04-04T14:26:29.289Z,35.80
2019-04-04T14:29:03.633Z,35.60
2019-04-04T14:31:34.981Z,35.80
2019-04-04T14:34:06.664Z,35.90
2019-04-04T14:36:37.122Z,36.00
2019-04-04T14:39:09.632Z,35.80
2019-04-04T14:41:40.245Z,36.60
2019-04-04T14:44:15.497Z,35.80
2019-04-04T14:46:45.601Z,36.00
2019-04-04T14:49:16.416Z,36.60
2019-04-04T14:51:46.975Z,36.40
2019-04-04T14:54:17.383Z,36.80
2019-04-04T14:56:47.964Z,37.30
2019-04-04T14:59:18.393Z,36.90
2019-04-04T15:01:48.905Z,36.70
2019-04-04T15:04:20.297Z,36.90
2019-04-04T15:06:50.825Z,37.30
2019-04-04T15:09:21.205Z,37.30
2019-04-04T15:11:51.750Z,36.80
2019-04-04T15:14:22.152Z,36.50
2019-04-04T15:16:59.420Z,36.60
2019-04-04T15:19:29.888Z,36.70
2019-04-04T15:22:04.270Z,37.20
2019-04-04T15:24:34.669Z,37.50
2019-04-04T15:27:06.327Z,37.40
2019-04-04T15:29:36.739Z,37.50
2019-04-04T15:32:07.156Z,37.70
2019-04-04T15:34:37.773Z,38.50
2019-04-04T15:37:08.330Z,38.40
2019-04-04T15:39:38.805Z,38.80
2019-04-04T15:42:09.250Z,38.90
2019-04-04T15:44:39.631Z,38.80
2019-04-04T15:47:10.156Z,39.10
2019-04-04T15:49:40.696Z,39.20
2019-04-04T15:52:11.122Z,38.70
2019-04-04T15:54:41.665Z,39.50
2019-04-04T15:57:12.081Z,40.10
2019-04-04T15:59:42.521Z,40.40
2019-04-04T16:02:13.089Z,40.90
2019-04-04T16:04:44.615Z,41.60
2019-04-04T16:07:15.047Z,41.40
2019-04-04T16:09:45.445Z,41.40
2019-04-04T16:12:15.871Z,41.10
2019-04-04T16:14:46.378Z,41.70
2019-04-04T16:17:16.843Z,41.50
2019-04-04T16:19:47.319Z,41.50
2019-04-04T16:22:17.955Z,42.00
2019-04-04T16:24:49.166Z,43.00
2019-04-04T16:27:19.780Z,42.50
2019-04-04T16:29:50.481Z,42.30
2019-04-04T16:32:24.593Z,42.80
2019-04-04T16:34:55.561Z,43.10
2019-04-04T16:37:26.171Z,43.20
2019-04-04T16:40:08.286Z,43.50
2019-04-04T16:42:28.683Z,44.20
2019-04-04T16:45:03.517Z,44.50
2019-04-04T16:47:33.939Z,44.50
2019-04-04T16:50:06.631Z,45.40
2019-04-04T16:52:37.041Z,45.00
2019-04-04T16:55:08.799Z,45.40
2019-04-04T16:57:39.153Z,46.20
2019-04-04T17:00:12.349Z,45.50
2019-04-04T17:02:42.797Z,45.90
2019-04-04T17:05:13.753Z,46.00
2019-04-04T17:07:44.156Z,46.20
2019-04-04T17:10:14.939Z,46.40
2019-04-04T17:12:45.334Z,46.40
2019-04-04T17:15:16.906Z,46.60
2019-04-04T17:17:47.324Z,46.50
2019-04-04T17:20:20.981Z,46.70
2019-04-04T17:22:52.953Z,47.00
2019-04-04T17:25:23.725Z,47.50
2019-04-04T17:27:54.165Z,48.10
2019-04-04T17:30:24.669Z,48.00
2019-04-04T17:32:55.524Z,48.30
2019-04-04T17:35:26.798Z,48.80
2019-04-04T17:37:57.727Z,48.60
2019-04-04T17:40:28.461Z,48.60
2019-04-04T17:42:58.925Z,48.70
2019-04-04T17:45:29.470Z,49.20
2019-04-04T17:48:00.300Z,49.70
2019-04-04T17:50:33.405Z,49.70
2019-04-04T17:53:04.177Z,50.00
2019-04-04T17:55:35.618Z,50.00
2019-04-04T17:58:13.796Z,50.00
2019-04-04T18:00:45.680Z,49.80
2019-04-04T18:03:16.135Z,50.40
2019-04-04T18:05:46.739Z,51.10
2019-04-04T18:08:25.035Z,52.10
2019-04-04T18:10:55.713Z,52.90
2019-04-04T18:13:26.108Z,53.50
2019-04-04T18:15:57.701Z,54.00
2019-04-04T18:18:28.276Z,55.00
2019-04-04T18:20:58.864Z,55.50
2019-04-04T18:23:29.351Z,56.30
2019-04-04T18:26:02.928Z,56.00
2019-04-04T18:28:33.370Z,56.20
2019-04-04T18:31:03.820Z,56.00
2019-04-04T18:33:34.435Z,56.40
2019-04-04T18:36:04.989Z,56.10
2019-04-04T18:38:38.211Z,56.10
2019-04-04T18:41:11.178Z,56.00
2019-04-04T18:43:41.571Z,56.10
2019-04-04T18:46:13.709Z,59.50
2019-04-04T18:48:47.274Z,59.90
2019-04-04T18:51:18.438Z,58.60
2019-04-04T18:53:48.825Z,57.70
2019-04-04T18:56:19.240Z,57.60
2019-04-04T18:58:49.675Z,59.40
2019-04-04T19:01:20.070Z,59.90
2019-04-04T19:03:50.536Z,61.20
2019-04-04T19:06:20.836Z,62.40
2019-04-04T19:08:51.275Z,64.10
2019-04-04T19:11:21.657Z,65.60
2019-04-04T19:13:52.012Z,66.00
2019-04-04T19:16:22.494Z,66.30
2019-04-04T19:18:53.003Z,66.60
2019-04-04T19:21:25.077Z,67.20
2019-04-04T19:23:56.969Z,69.90
2019-04-04T19:26:27.401Z,68.70
2019-04-04T19:28:57.779Z,69.00
2019-04-04T19:31:28.442Z,68.20
2019-04-04T19:33:58.880Z,68.30
2019-04-04T19:36:29.509Z,69.10
2019-04-04T19:38:59.940Z,70.20
2019-04-04T19:41:30.383Z,71.20
2019-04-04T19:44:00.776Z,72.00
2019-04-04T19:46:37.339Z,72.10
2019-04-04T19:49:05.226Z,72.60
2019-04-04T19:51:35.601Z,72.90
2019-04-04T19:54:06.012Z,74.40
2019-04-04T19:56:36.459Z,75.40
2019-04-04T19:59:06.819Z,75.70
2019-04-04T20:01:37.285Z,75.70
2019-04-04T20:04:07.699Z,74.40
2019-04-04T20:06:38.111Z,71.20
2019-04-04T20:09:08.651Z,79.00
2019-04-04T20:11:39.023Z,78.90
2019-04-04T20:14:09.406Z,81.80
2019-04-04T20:16:39.851Z,86.20
2019-04-04T20:19:10.245Z,83.50
2019-04-04T20:21:40.666Z,86.20
2019-04-04T20:24:11.075Z,92.80
2019-04-04T20:26:41.472Z,91.60
2019-04-04T20:29:11.886Z,89.40
2019-04-04T20:31:43.238Z,86.50
2019-04-04T20:34:13.679Z,86.20
2019-04-04T20:36:44.122Z,86.80
2019-04-04T20:39:14.625Z,86.10
2019-04-04T20:41:45.012Z,86.10
2019-04-04T20:44:15.447Z,86.60
2019-04-04T20:46:45.830Z,87.30
2019-04-04T20:49:16.250Z,88.10
2019-04-04T20:51:46.640Z,88.80
2019-04-04T20:54:17.059Z,89.70
2019-04-04T20:56:47.459Z,89.00
2019-04-04T20:59:17.885Z,88.80
2019-04-04T21:01:48.265Z,88.70
2019-04-04T21:04:18.727Z,88.90
2019-04-04T21:06:49.144Z,89.10
2019-04-04T21:09:19.541Z,89.40
2019-04-04T21:11:49.957Z,89.20
2019-04-04T21:14:20.407Z,89.40
2019-04-04T21:16:50.868Z,90.00
2019-04-04T21:19:21.267Z,89.60
2019-04-04T21:21:51.661Z,89.80
2019-04-04T21:24:22.146Z,89.90
2019-04-04T21:26:52.529Z,90.00
2019-04-04T21:29:22.914Z,90.10
2019-04-04T21:31:53.416Z,90.90
2019-04-04T21:34:23.854Z,90.90
2019-04-04T21:36:54.395Z,90.90
2019-04-04T21:39:24.773Z,90.50
2019-04-04T21:41:55.208Z,90.60
2019-04-04T21:44:25.553Z,91.00
2019-04-04T21:46:55.999Z,91.70
2019-04-04T21:49:29.612Z,91.80
2019-04-04T21:51:59.955Z,92.10
2019-04-04T21:54:30.305Z,92.40
2019-04-04T21:57:00.698Z,92.70
2019-04-04T21:59:31.125Z,93.10
2019-04-04T22:02:02.883Z,92.70
2019-04-04T22:04:33.331Z,92.60
2019-04-04T22:07:03.832Z,92.70
2019-04-04T22:09:34.197Z,92.80
2019-04-04T22:12:04.799Z,92.70
2019-04-04T22:14:35.147Z,92.80
2019-04-04T22:17:05.545Z,92.80
2019-04-04T22:19:35.947Z,92.90
2019-04-04T22:22:06.335Z,93.00
2019-04-04T22:24:36.724Z,92.80
2019-04-04T22:27:07.194Z,92.40
2019-04-04T22:29:37.559Z,92.40
2019-04-04T22:32:07.940Z,92.70
2019-04-04T22:34:38.332Z,92.50
2019-04-04T22:37:08.841Z,92.90
2019-04-04T22:39:39.235Z,92.70
2019-04-04T22:42:09.688Z,93.20
2019-04-04T22:44:40.014Z,93.20
2019-04-04T22:47:10.420Z,93.40
2019-04-04T22:49:40.829Z,93.70
2019-04-04T22:52:11.215Z,94.30
2019-04-04T22:54:41.645Z,94.20
2019-04-04T22:57:12.171Z,94.10
2019-04-04T22:59:42.729Z,94.00
2019-04-04T23:02:13.156Z,94.60
2019-04-04T23:04:43.617Z,94.60
2019-04-04T23:07:14.024Z,94.70
2019-04-04T23:09:44.446Z,95.20
2019-04-04T23:12:14.834Z,95.70
2019-04-04T23:14:48.385Z,95.90
2019-04-04T23:17:17.274Z,96.00
2019-04-04T23:19:47.748Z,96.10
2019-04-04T23:22:18.179Z,96.40
2019-04-04T23:24:48.609Z,96.60
2019-04-04T23:27:19.078Z,96.50
2019-04-04T23:29:49.436Z,96.50
2019-04-04T23:32:19.885Z,96.40
2019-04-04T23:34:50.247Z,96.50
2019-04-04T23:37:20.712Z,96.50
2019-04-04T23:39:51.169Z,96.30
2019-04-04T23:42:21.567Z,96.10
2019-04-04T23:45:00.866Z,96.60
2019-04-04T23:47:24.007Z,96.70
2019-04-04T23:49:58.378Z,96.90
2019-04-04T23:52:28.775Z,97.20
2019-04-04T23:54:59.205Z,97.50
2019-04-04T23:57:29.598Z,97.40
2019-04-04T23:59:59.983Z,97.40
